createdAt,value
2023-01-21T00:00:27.874Z,1007.37
2023-01-21T00:01:27.889Z,1007.37
2023-01-21T00:02:27.934Z,1007.4
2023-01-21T00:03:28.050Z,1007.43
2023-01-21T00:04:27.933Z,1007.46
2023-01-21T00:05:27.972Z,1007.47
2023-01-21T00:06:27.964Z,1007.47
2023-01-21T00:07:27.977Z,1007.52
2023-01-21T00:08:27.991Z,1007.53
2023-01-21T00:09:28.006Z,1007.46
2023-01-21T00:10:28.020Z,1007.51
2023-01-21T00:11:28.036Z,1007.51
2023-01-21T00:12:28.047Z,1007.53
2023-01-21T00:13:28.064Z,1007.57
2023-01-21T00:14:28.087Z,1007.59
2023-01-21T00:15:28.160Z,1007.59
2023-01-21T00:16:28.110Z,1007.58
2023-01-21T00:17:28.123Z,1007.58
2023-01-21T00:18:30.008Z,1007.61
2023-01-21T00:19:28.149Z,1007.63
2023-01-21T00:20:28.166Z,1007.62
2023-01-21T00:21:28.201Z,1007.63
2023-01-21T00:22:28.196Z,1007.64
2023-01-21T00:23:28.211Z,1007.61
2023-01-21T00:24:28.229Z,1007.66
2023-01-21T00:25:28.234Z,1007.66
2023-01-21T00:26:28.253Z,1007.7
2023-01-21T00:27:28.263Z,1007.68
2023-01-21T00:28:28.280Z,1007.73
2023-01-21T00:29:28.298Z,1007.7
2023-01-21T00:30:28.315Z,1007.71
2023-01-21T00:31:28.428Z,1007.71
2023-01-21T00:32:28.366Z,1007.71
2023-01-21T00:33:28.397Z,1007.72
2023-01-21T00:34:28.375Z,1007.68
2023-01-21T00:35:28.379Z,1007.71
2023-01-21T00:36:28.393Z,1007.78
2023-01-21T00:37:28.432Z,1007.78
2023-01-21T00:38:28.423Z,1007.8
2023-01-21T00:39:28.441Z,1007.76
2023-01-21T00:40:28.451Z,1007.74
2023-01-21T00:41:28.465Z,1007.79
2023-01-21T00:42:28.479Z,1007.81
2023-01-21T00:43:28.493Z,1007.75
2023-01-21T00:44:28.508Z,1007.81
2023-01-21T00:45:28.523Z,1007.83
2023-01-21T00:46:28.597Z,1007.85
2023-01-21T00:47:28.550Z,1007.84
2023-01-21T00:48:28.806Z,1007.81
2023-01-21T00:49:28.582Z,1007.84
2023-01-21T00:50:28.596Z,1007.86
2023-01-21T00:51:28.607Z,1007.93
2023-01-21T00:52:28.627Z,1007.91
2023-01-21T00:53:29.110Z,1007.91
2023-01-21T00:54:28.652Z,1007.95
2023-01-21T00:55:28.674Z,1007.95
2023-01-21T00:56:28.680Z,1007.96
2023-01-21T00:57:28.697Z,1007.99
2023-01-21T00:58:28.729Z,1007.99
2023-01-21T00:59:28.721Z,1008.04
2023-01-21T01:00:28.737Z,1008.03
2023-01-21T01:01:28.761Z,1008.03
2023-01-21T01:02:28.785Z,1008.01
2023-01-21T01:03:28.781Z,1008.05
2023-01-21T01:04:28.791Z,1008.05
2023-01-21T01:05:28.807Z,1008.04
2023-01-21T01:06:28.829Z,1008.07
2023-01-21T01:07:28.844Z,1008.07
2023-01-21T01:08:28.851Z,1008.07
2023-01-21T01:09:28.887Z,1008.14
2023-01-21T01:10:28.877Z,1008.15
2023-01-21T01:11:28.896Z,1008.2
2023-01-21T01:12:28.911Z,1008.18
2023-01-21T01:13:28.926Z,1008.22
2023-01-21T01:14:28.932Z,1008.21
2023-01-21T01:15:28.949Z,1008.25
2023-01-21T01:16:28.983Z,1008.29
2023-01-21T01:17:28.986Z,1008.34
2023-01-21T01:18:29.000Z,1008.38
2023-01-21T01:19:29.009Z,1008.42
2023-01-21T01:20:29.018Z,1008.43
2023-01-21T01:21:29.036Z,1008.42
2023-01-21T01:22:29.046Z,1008.42
2023-01-21T01:23:29.064Z,1008.42
2023-01-21T01:24:29.081Z,1008.49
2023-01-21T01:25:29.124Z,1008.48
2023-01-21T01:26:29.102Z,1008.53
2023-01-21T01:27:29.117Z,1008.57
2023-01-21T01:28:29.140Z,1008.56
2023-01-21T01:29:29.145Z,1008.61
2023-01-21T01:30:29.192Z,1008.62
2023-01-21T01:31:29.184Z,1008.62
2023-01-21T01:32:29.188Z,1008.64
2023-01-21T01:33:29.201Z,1008.67
2023-01-21T01:34:29.213Z,1008.66
2023-01-21T01:35:29.235Z,1008.73
2023-01-21T01:36:29.241Z,1008.72
2023-01-21T01:37:29.258Z,1008.77
2023-01-21T01:38:29.270Z,1008.79
2023-01-21T01:39:29.286Z,1008.82
2023-01-21T01:40:29.298Z,1008.87
2023-01-21T01:41:29.347Z,1008.88
2023-01-21T01:42:29.346Z,1008.85
2023-01-21T01:43:29.342Z,1008.85
2023-01-21T01:44:29.372Z,1008.85
2023-01-21T01:45:29.379Z,1008.87
2023-01-21T01:46:29.478Z,1008.88
2023-01-21T01:47:29.401Z,1008.87
2023-01-21T01:48:29.417Z,1008.91
2023-01-21T01:49:29.425Z,1008.93
2023-01-21T01:50:29.439Z,1008.91
2023-01-21T01:51:29.458Z,1008.95
2023-01-21T01:52:29.477Z,1008.9
2023-01-21T01:53:29.930Z,1008.91
2023-01-21T01:54:29.494Z,1008.94
2023-01-21T01:55:29.509Z,1008.92
2023-01-21T01:56:29.526Z,1009
2023-01-21T01:57:29.558Z,1009
2023-01-21T01:58:29.550Z,1009
2023-01-21T01:59:29.577Z,1009.01
2023-01-21T02:00:29.578Z,1009.03
2023-01-21T02:01:29.591Z,1009.08
2023-01-21T02:02:29.624Z,1009.08
2023-01-21T02:03:29.636Z,1009.08
2023-01-21T02:04:29.636Z,1009.07
2023-01-21T02:05:29.648Z,1009.11
2023-01-21T02:06:29.676Z,1009.08
2023-01-21T02:07:29.689Z,1009.1
2023-01-21T02:08:29.691Z,1009.14
2023-01-21T02:09:29.909Z,1009.08
2023-01-21T02:10:29.720Z,1009.12
2023-01-21T02:11:29.739Z,1009.14
2023-01-21T02:12:29.751Z,1009.17
2023-01-21T02:13:29.816Z,1009.16
2023-01-21T02:14:29.776Z,1009.2
2023-01-21T02:15:29.790Z,1009.22
2023-01-21T02:16:29.874Z,1009.23
2023-01-21T02:17:29.822Z,1009.23
2023-01-21T02:18:29.835Z,1009.24
2023-01-21T02:19:29.844Z,1009.22
2023-01-21T02:20:29.857Z,1009.26
2023-01-21T02:21:29.872Z,1009.25
2023-01-21T02:22:29.899Z,1009.29
2023-01-21T02:23:29.898Z,1009.33
2023-01-21T02:24:29.916Z,1009.34
2023-01-21T02:25:29.927Z,1009.34
2023-01-21T02:26:29.944Z,1009.35
2023-01-21T02:27:31.216Z,1009.4
2023-01-21T02:28:29.982Z,1009.42
2023-01-21T02:29:30.010Z,1009.43
2023-01-21T02:30:29.996Z,1009.4
2023-01-21T02:31:30.041Z,1009.43
2023-01-21T02:32:30.025Z,1009.43
2023-01-21T02:33:30.058Z,1009.44
2023-01-21T02:34:30.056Z,1009.42
2023-01-21T02:35:30.067Z,1009.42
2023-01-21T02:36:30.087Z,1009.45
2023-01-21T02:37:30.093Z,1009.44
2023-01-21T02:38:30.106Z,1009.43
2023-01-21T02:39:30.121Z,1009.44
2023-01-21T02:40:30.136Z,1009.48
2023-01-21T02:41:30.147Z,1009.48
2023-01-21T02:42:30.165Z,1009.49
2023-01-21T02:43:30.180Z,1009.49
2023-01-21T02:44:30.193Z,1009.5
2023-01-21T02:45:30.228Z,1009.5
2023-01-21T02:46:30.272Z,1009.46
2023-01-21T02:47:30.238Z,1009.57
2023-01-21T02:48:30.244Z,1009.53
2023-01-21T02:49:30.260Z,1009.55
2023-01-21T02:50:30.284Z,1009.52
2023-01-21T02:51:30.288Z,1009.57
2023-01-21T02:52:30.299Z,1009.59
2023-01-21T02:53:30.515Z,1009.59
2023-01-21T02:54:30.330Z,1009.57
2023-01-21T02:55:30.351Z,1009.58
2023-01-21T02:56:30.355Z,1009.65
2023-01-21T02:57:30.369Z,1009.67
2023-01-21T02:58:30.388Z,1009.66
2023-01-21T02:59:30.398Z,1009.67
2023-01-21T03:00:30.418Z,1009.67
2023-01-21T03:01:30.450Z,1009.68
2023-01-21T03:02:30.444Z,1009.65
2023-01-21T03:03:30.455Z,1009.66
2023-01-21T03:04:30.464Z,1009.73
2023-01-21T03:05:30.475Z,1009.74
2023-01-21T03:06:30.524Z,1009.71
2023-01-21T03:07:30.510Z,1009.74
2023-01-21T03:08:30.525Z,1009.74
2023-01-21T03:09:30.535Z,1009.75
2023-01-21T03:10:30.548Z,1009.79
2023-01-21T03:11:30.562Z,1009.77
2023-01-21T03:12:30.584Z,1009.8
2023-01-21T03:13:30.591Z,1009.82
2023-01-21T03:14:30.601Z,1009.79
2023-01-21T03:15:30.623Z,1009.79
2023-01-21T03:16:30.681Z,1009.82
2023-01-21T03:17:30.668Z,1009.77
2023-01-21T03:18:30.659Z,1009.79
2023-01-21T03:19:30.673Z,1009.74
2023-01-21T03:20:30.685Z,1009.78
2023-01-21T03:21:30.701Z,1009.75
2023-01-21T03:22:30.713Z,1009.77
2023-01-21T03:23:30.727Z,1009.72
2023-01-21T03:24:30.740Z,1009.73
2023-01-21T03:25:30.754Z,1009.73
2023-01-21T03:26:30.767Z,1009.75
2023-01-21T03:27:30.784Z,1009.75
2023-01-21T03:28:30.795Z,1009.76
2023-01-21T03:29:30.809Z,1009.78
2023-01-21T03:30:30.914Z,1009.79
2023-01-21T03:31:30.843Z,1009.8
2023-01-21T03:32:30.848Z,1009.78
2023-01-21T03:33:30.918Z,1009.77
2023-01-21T03:34:30.881Z,1009.8
2023-01-21T03:35:30.896Z,1009.83
2023-01-21T03:36:30.911Z,1009.78
2023-01-21T03:37:30.930Z,1009.84
2023-01-21T03:38:30.933Z,1009.8
2023-01-21T03:39:30.953Z,1009.82
2023-01-21T03:40:30.960Z,1009.83
2023-01-21T03:41:30.973Z,1009.86
2023-01-21T03:42:30.985Z,1009.88
2023-01-21T03:43:31.002Z,1009.87
2023-01-21T03:44:31.016Z,1009.86
2023-01-21T03:45:31.075Z,1009.86
2023-01-21T03:46:31.041Z,1009.87
2023-01-21T03:47:31.053Z,1009.87
2023-01-21T03:48:31.075Z,1009.9
2023-01-21T03:49:31.192Z,1009.89
2023-01-21T03:50:31.094Z,1009.92
2023-01-21T03:51:31.107Z,1009.91
2023-01-21T03:52:31.125Z,1009.95
2023-01-21T03:53:31.187Z,1009.91
2023-01-21T03:54:31.149Z,1009.92
2023-01-21T03:55:31.165Z,1009.91
2023-01-21T03:56:31.179Z,1009.94
2023-01-21T03:57:31.191Z,1009.93
2023-01-21T03:58:31.207Z,1009.94
2023-01-21T03:59:31.218Z,1009.92
2023-01-21T04:00:31.233Z,1009.85
2023-01-21T04:01:31.242Z,1009.87
2023-01-21T04:02:31.283Z,1009.89
2023-01-21T04:03:31.273Z,1009.89
2023-01-21T04:04:31.283Z,1009.9
2023-01-21T04:05:31.322Z,1009.92
2023-01-21T04:06:31.325Z,1009.88
2023-01-21T04:07:31.330Z,1009.91
2023-01-21T04:08:31.347Z,1009.87
2023-01-21T04:09:31.353Z,1009.82
2023-01-21T04:10:31.365Z,1009.84
2023-01-21T04:11:31.378Z,1009.79
2023-01-21T04:12:31.393Z,1009.81
2023-01-21T04:13:31.415Z,1009.79
2023-01-21T04:14:31.421Z,1009.75
2023-01-21T04:15:31.433Z,1009.76
2023-01-21T04:16:31.515Z,1009.77
2023-01-21T04:17:31.461Z,1009.75
2023-01-21T04:18:31.479Z,1009.76
2023-01-21T04:19:31.487Z,1009.79
2023-01-21T04:20:31.508Z,1009.81
2023-01-21T04:21:31.543Z,1009.82
2023-01-21T04:22:31.781Z,1009.78
2023-01-21T04:23:31.543Z,1009.79
2023-01-21T04:24:33.797Z,1009.83
2023-01-21T04:25:31.567Z,1009.77
2023-01-21T04:26:31.583Z,1009.79
2023-01-21T04:27:31.596Z,1009.76
2023-01-21T04:28:31.601Z,1009.78
2023-01-21T04:29:31.632Z,1009.75
2023-01-21T04:30:31.668Z,1009.81
2023-01-21T04:31:31.672Z,1009.79
2023-01-21T04:32:31.662Z,1009.82
2023-01-21T04:33:31.676Z,1009.81
2023-01-21T04:34:31.690Z,1009.83
2023-01-21T04:35:31.705Z,1009.85
2023-01-21T04:36:31.717Z,1009.84
2023-01-21T04:37:31.766Z,1009.85
2023-01-21T04:38:31.745Z,1009.85
2023-01-21T04:39:31.765Z,1009.83
2023-01-21T04:40:31.770Z,1009.87
2023-01-21T04:41:31.783Z,1009.85
2023-01-21T04:42:31.801Z,1009.85
2023-01-21T04:43:31.811Z,1009.85
2023-01-21T04:44:31.823Z,1009.84
2023-01-21T04:45:31.838Z,1009.86
2023-01-21T04:46:31.852Z,1009.84
2023-01-21T04:47:31.867Z,1009.87
2023-01-21T04:48:31.878Z,1009.89
2023-01-21T04:49:31.904Z,1009.88
2023-01-21T04:50:31.904Z,1009.9
2023-01-21T04:51:31.919Z,1009.94
2023-01-21T04:52:31.930Z,1009.97
2023-01-21T04:53:32.323Z,1010.04
2023-01-21T04:54:31.959Z,1010.01
2023-01-21T04:55:31.973Z,1010.05
2023-01-21T04:56:31.984Z,1009.99
2023-01-21T04:57:31.998Z,1010.01
2023-01-21T04:58:32.014Z,1010.01
2023-01-21T04:59:32.024Z,1010
2023-01-21T05:00:32.037Z,1010.06
2023-01-21T05:01:32.076Z,1010.1
2023-01-21T05:02:32.187Z,1010.11
2023-01-21T05:03:32.095Z,1010.11
2023-01-21T05:04:32.091Z,1010.08
2023-01-21T05:05:32.111Z,1010.11
2023-01-21T05:06:32.120Z,1010.13
2023-01-21T05:07:32.133Z,1010.09
2023-01-21T05:08:32.144Z,1010.15
2023-01-21T05:09:32.193Z,1010.15
2023-01-21T05:10:32.171Z,1010.17
2023-01-21T05:11:32.188Z,1010.21
2023-01-21T05:12:32.204Z,1010.26
2023-01-21T05:13:32.224Z,1010.22
2023-01-21T05:14:32.223Z,1010.22
2023-01-21T05:15:32.268Z,1010.26
2023-01-21T05:16:32.299Z,1010.27
2023-01-21T05:17:32.268Z,1010.29
2023-01-21T05:18:32.280Z,1010.28
2023-01-21T05:19:32.291Z,1010.33
2023-01-21T05:20:32.315Z,1010.36
2023-01-21T05:21:32.322Z,1010.32
2023-01-21T05:22:32.333Z,1010.3
2023-01-21T05:23:32.344Z,1010.36
2023-01-21T05:24:32.365Z,1010.35
2023-01-21T05:25:32.404Z,1010.33
2023-01-21T05:26:32.389Z,1010.33
2023-01-21T05:27:32.403Z,1010.33
2023-01-21T05:28:32.420Z,1010.36
2023-01-21T05:29:32.432Z,1010.41
2023-01-21T05:30:32.703Z,1010.39
2023-01-21T05:31:32.531Z,1010.39
2023-01-21T05:32:32.465Z,1010.43
2023-01-21T05:33:32.492Z,1010.4
2023-01-21T05:34:32.498Z,1010.45
2023-01-21T05:35:32.607Z,1010.43
2023-01-21T05:36:32.521Z,1010.41
2023-01-21T05:37:32.547Z,1010.43
2023-01-21T05:38:32.540Z,1010.43
2023-01-21T05:39:32.560Z,1010.47
2023-01-21T05:40:32.673Z,1010.45
2023-01-21T05:41:32.611Z,1010.47
2023-01-21T05:42:32.599Z,1010.56
2023-01-21T05:43:32.614Z,1010.61
2023-01-21T05:44:32.627Z,1010.61
2023-01-21T05:45:32.742Z,1010.64
2023-01-21T05:46:32.652Z,1010.69
2023-01-21T05:47:32.665Z,1010.66
2023-01-21T05:48:32.687Z,1010.68
2023-01-21T05:49:32.690Z,1010.71
2023-01-21T05:50:32.712Z,1010.68
2023-01-21T05:51:32.717Z,1010.66
2023-01-21T05:52:32.741Z,1010.71
2023-01-21T05:53:33.296Z,1010.73
2023-01-21T05:54:32.759Z,1010.67
2023-01-21T05:55:32.774Z,1010.71
2023-01-21T05:56:32.789Z,1010.71
2023-01-21T05:57:32.843Z,1010.71
2023-01-21T05:58:32.816Z,1010.75
2023-01-21T05:59:32.825Z,1010.8
2023-01-21T06:00:32.840Z,1010.74
2023-01-21T06:01:32.853Z,1010.84
2023-01-21T06:02:32.931Z,1010.83
2023-01-21T06:03:32.920Z,1010.87
2023-01-21T06:04:32.909Z,1010.85
2023-01-21T06:05:32.916Z,1010.88
2023-01-21T06:06:32.918Z,1010.86
2023-01-21T06:07:32.931Z,1010.91
2023-01-21T06:08:32.948Z,1010.87
2023-01-21T06:09:32.960Z,1010.91
2023-01-21T06:10:32.971Z,1010.93
2023-01-21T06:11:33.018Z,1010.9
2023-01-21T06:12:32.996Z,1010.93
2023-01-21T06:13:33.039Z,1010.92
2023-01-21T06:14:33.025Z,1010.94
2023-01-21T06:15:33.053Z,1010.96
2023-01-21T06:16:33.052Z,1010.96
2023-01-21T06:17:33.063Z,1010.98
2023-01-21T06:18:33.076Z,1011.01
2023-01-21T06:19:33.095Z,1011.04
2023-01-21T06:20:33.103Z,1011.04
2023-01-21T06:21:33.118Z,1011.06
2023-01-21T06:22:33.129Z,1011.03
2023-01-21T06:23:33.143Z,1011.06
2023-01-21T06:24:33.159Z,1011.07
2023-01-21T06:25:33.173Z,1011.04
2023-01-21T06:26:33.181Z,1011.09
2023-01-21T06:27:33.200Z,1011.07
2023-01-21T06:28:33.211Z,1011.14
2023-01-21T06:29:33.251Z,1011.17
2023-01-21T06:30:33.238Z,1011.18
2023-01-21T06:31:33.370Z,1011.22
2023-01-21T06:32:33.264Z,1011.16
2023-01-21T06:33:33.276Z,1011.19
2023-01-21T06:34:33.290Z,1011.23
2023-01-21T06:35:33.301Z,1011.25
2023-01-21T06:36:33.321Z,1011.24
2023-01-21T06:37:33.329Z,1011.21
2023-01-21T06:38:33.342Z,1011.21
2023-01-21T06:39:33.353Z,1011.22
2023-01-21T06:40:33.362Z,1011.18
2023-01-21T06:41:33.386Z,1011.21
2023-01-21T06:42:33.396Z,1011.24
2023-01-21T06:43:33.408Z,1011.23
2023-01-21T06:44:33.422Z,1011.26
2023-01-21T06:45:33.459Z,1011.24
2023-01-21T06:46:33.530Z,1011.23
2023-01-21T06:47:33.463Z,1011.29
2023-01-21T06:48:33.474Z,1011.24
2023-01-21T06:49:33.488Z,1011.24
2023-01-21T06:50:33.500Z,1011.26
2023-01-21T06:51:33.521Z,1011.25
2023-01-21T06:52:33.532Z,1011.27
2023-01-21T06:53:34.092Z,1011.37
2023-01-21T06:54:33.552Z,1011.41
2023-01-21T06:55:33.564Z,1011.39
2023-01-21T06:56:33.578Z,1011.42
2023-01-21T06:57:33.593Z,1011.43
2023-01-21T06:58:33.612Z,1011.47
2023-01-21T06:59:33.618Z,1011.48
2023-01-21T07:00:33.631Z,1011.48
2023-01-21T07:01:33.710Z,1011.47
2023-01-21T07:02:33.690Z,1011.48
2023-01-21T07:03:33.673Z,1011.48
2023-01-21T07:04:33.711Z,1011.51
2023-01-21T07:05:33.695Z,1011.52
2023-01-21T07:06:33.715Z,1011.52
2023-01-21T07:07:33.728Z,1011.53
2023-01-21T07:08:33.744Z,1011.57
2023-01-21T07:09:33.752Z,1011.55
2023-01-21T07:10:33.762Z,1011.58
2023-01-21T07:11:33.780Z,1011.56
2023-01-21T07:12:33.803Z,1011.59
2023-01-21T07:13:33.801Z,1011.58
2023-01-21T07:14:33.819Z,1011.63
2023-01-21T07:15:33.838Z,1011.59
2023-01-21T07:16:33.847Z,1011.57
2023-01-21T07:17:33.886Z,1011.65
2023-01-21T07:18:33.877Z,1011.65
2023-01-21T07:19:33.882Z,1011.64
2023-01-21T07:20:33.896Z,1011.63
2023-01-21T07:21:33.912Z,1011.65
2023-01-21T07:22:33.935Z,1011.68
2023-01-21T07:23:33.934Z,1011.65
2023-01-21T07:24:33.949Z,1011.65
2023-01-21T07:25:33.955Z,1011.69
2023-01-21T07:26:33.975Z,1011.68
2023-01-21T07:27:33.985Z,1011.68
2023-01-21T07:28:34.002Z,1011.73
2023-01-21T07:29:34.013Z,1011.72
2023-01-21T07:30:34.024Z,1011.69
2023-01-21T07:31:34.174Z,1011.72
2023-01-21T07:32:34.063Z,1011.7
2023-01-21T07:33:34.093Z,1011.8
2023-01-21T07:34:34.086Z,1011.77
2023-01-21T07:35:34.088Z,1011.74
2023-01-21T07:36:34.106Z,1011.8
2023-01-21T07:37:34.119Z,1011.82
2023-01-21T07:38:34.133Z,1011.81
2023-01-21T07:39:34.145Z,1011.85
2023-01-21T07:40:34.164Z,1011.85
2023-01-21T07:41:34.181Z,1011.87
2023-01-21T07:42:34.187Z,1011.83
2023-01-21T07:43:34.197Z,1011.89
2023-01-21T07:44:34.210Z,1011.86
2023-01-21T07:45:34.218Z,1011.84
2023-01-21T07:46:34.256Z,1011.81
2023-01-21T07:47:34.251Z,1011.88
2023-01-21T07:48:34.261Z,1011.92
2023-01-21T07:49:34.301Z,1011.88
2023-01-21T07:50:34.293Z,1011.87
2023-01-21T07:51:34.305Z,1011.87
2023-01-21T07:52:34.315Z,1011.88
2023-01-21T07:53:34.378Z,1011.91
2023-01-21T07:54:34.339Z,1011.94
2023-01-21T07:55:34.356Z,1011.95
2023-01-21T07:56:34.365Z,1012
2023-01-21T07:57:34.379Z,1012.01
2023-01-21T07:58:34.401Z,1011.98
2023-01-21T07:59:34.419Z,1011.94
2023-01-21T08:00:34.427Z,1012
2023-01-21T08:01:34.489Z,1012.02
2023-01-21T08:02:34.562Z,1011.97
2023-01-21T08:03:34.464Z,1012.02
2023-01-21T08:04:34.471Z,1012.02
2023-01-21T08:05:34.531Z,1012.02
2023-01-21T08:06:34.488Z,1012
2023-01-21T08:07:34.510Z,1012.01
2023-01-21T08:08:34.530Z,1012.02
2023-01-21T08:09:34.545Z,1012.04
2023-01-21T08:10:34.547Z,1012.05
2023-01-21T08:11:34.564Z,1012.05
2023-01-21T08:12:34.579Z,1012.11
2023-01-21T08:13:34.590Z,1012.06
2023-01-21T08:14:34.613Z,1012.07
2023-01-21T08:15:34.625Z,1012.03
2023-01-21T08:16:34.734Z,1012.07
2023-01-21T08:17:34.646Z,1012.1
2023-01-21T08:18:34.656Z,1012.1
2023-01-21T08:19:34.681Z,1012.09
2023-01-21T08:20:34.691Z,1012.07
2023-01-21T08:21:34.718Z,1012.07
2023-01-21T08:22:34.713Z,1012.07
2023-01-21T08:23:34.728Z,1012.07
2023-01-21T08:24:34.731Z,1012.05
2023-01-21T08:25:34.756Z,1012.09
2023-01-21T08:26:34.759Z,1012.05
2023-01-21T08:27:34.785Z,1012.02
2023-01-21T08:28:34.798Z,1012.05
2023-01-21T08:29:34.800Z,1012.06
2023-01-21T08:30:34.840Z,1012.07
2023-01-21T08:31:34.839Z,1012.04
2023-01-21T08:32:34.841Z,1012.09
2023-01-21T08:33:34.851Z,1012.14
2023-01-21T08:34:34.863Z,1012.1
2023-01-21T08:35:34.875Z,1012.09
2023-01-21T08:36:34.892Z,1012.07
2023-01-21T08:37:34.931Z,1012.1
2023-01-21T08:38:34.928Z,1012.07
2023-01-21T08:39:34.929Z,1012.05
2023-01-21T08:40:34.951Z,1012.03
2023-01-21T08:41:34.973Z,1012.08
2023-01-21T08:42:34.968Z,1012.09
2023-01-21T08:43:34.979Z,1012.08
2023-01-21T08:44:34.998Z,1012.05
2023-01-21T08:45:35.037Z,1012.09
2023-01-21T08:46:35.024Z,1012.07
2023-01-21T08:47:35.048Z,1012.09
2023-01-21T08:48:35.049Z,1012.09
2023-01-21T08:49:35.059Z,1012.09
2023-01-21T08:50:35.077Z,1012.1
2023-01-21T08:51:35.086Z,1012.11
2023-01-21T08:52:35.099Z,1012.12
2023-01-21T08:53:35.203Z,1012.1
2023-01-21T08:54:35.127Z,1012.11
2023-01-21T08:55:35.133Z,1012.14
2023-01-21T08:56:35.154Z,1012.12
2023-01-21T08:57:35.162Z,1012.17
2023-01-21T08:58:35.205Z,1012.19
2023-01-21T08:59:35.185Z,1012.23
2023-01-21T09:00:35.205Z,1012.17
2023-01-21T09:01:35.218Z,1012.2
2023-01-21T09:02:35.233Z,1012.25
2023-01-21T09:03:35.242Z,1012.25
2023-01-21T09:04:35.256Z,1012.29
2023-01-21T09:05:35.273Z,1012.38
2023-01-21T09:06:35.284Z,1012.35
2023-01-21T09:07:35.291Z,1012.4
2023-01-21T09:08:35.309Z,1012.36
2023-01-21T09:09:35.348Z,1012.39
2023-01-21T09:10:35.332Z,1012.42
2023-01-21T09:11:35.344Z,1012.42
2023-01-21T09:12:35.362Z,1012.46
2023-01-21T09:13:35.373Z,1012.44
2023-01-21T09:14:35.384Z,1012.45
2023-01-21T09:15:35.393Z,1012.44
2023-01-21T09:16:35.476Z,1012.48
2023-01-21T09:17:35.423Z,1012.52
2023-01-21T09:18:35.439Z,1012.52
2023-01-21T09:19:35.452Z,1012.52
2023-01-21T09:20:35.473Z,1012.59
2023-01-21T09:21:35.476Z,1012.52
2023-01-21T09:22:35.489Z,1012.57
2023-01-21T09:23:35.504Z,1012.63
2023-01-21T09:24:35.519Z,1012.61
2023-01-21T09:25:35.552Z,1012.64
2023-01-21T09:26:35.540Z,1012.59
2023-01-21T09:27:35.555Z,1012.66
2023-01-21T09:28:35.565Z,1012.66
2023-01-21T09:29:35.581Z,1012.63
2023-01-21T09:30:35.591Z,1012.66
2023-01-21T09:31:35.642Z,1012.63
2023-01-21T09:32:35.619Z,1012.69
2023-01-21T09:33:35.634Z,1012.69
2023-01-21T09:34:35.977Z,1012.7
2023-01-21T09:35:35.655Z,1012.72
2023-01-21T09:36:35.680Z,1012.69
2023-01-21T09:37:35.688Z,1012.67
2023-01-21T09:38:35.701Z,1012.75
2023-01-21T09:39:35.712Z,1012.77
2023-01-21T09:40:35.720Z,1012.77
2023-01-21T09:41:35.761Z,1012.76
2023-01-21T09:42:35.749Z,1012.82
2023-01-21T09:43:35.761Z,1012.74
2023-01-21T09:44:35.778Z,1012.75
2023-01-21T09:45:35.805Z,1012.78
2023-01-21T09:46:35.810Z,1012.82
2023-01-21T09:47:35.814Z,1012.83
2023-01-21T09:48:35.824Z,1012.83
2023-01-21T09:49:35.839Z,1012.84
2023-01-21T09:50:35.851Z,1012.84
2023-01-21T09:51:35.864Z,1012.91
2023-01-21T09:52:35.897Z,1012.87
2023-01-21T09:53:35.893Z,1012.9
2023-01-21T09:54:35.907Z,1012.89
2023-01-21T09:55:35.930Z,1012.89
2023-01-21T09:56:35.934Z,1012.91
2023-01-21T09:57:35.971Z,1012.9
2023-01-21T09:58:35.959Z,1012.89
2023-01-21T09:59:35.975Z,1012.94
2023-01-21T10:00:35.979Z,1012.95
2023-01-21T10:01:35.997Z,1012.96
2023-01-21T10:02:36.009Z,1012.97
2023-01-21T10:03:36.023Z,1012.97
2023-01-21T10:04:36.085Z,1012.99
2023-01-21T10:05:36.048Z,1012.99
2023-01-21T10:06:36.062Z,1013.04
2023-01-21T10:07:36.075Z,1013.1
2023-01-21T10:08:36.086Z,1013.08
2023-01-21T10:09:36.101Z,1013.07
2023-01-21T10:10:36.123Z,1013.06
2023-01-21T10:11:36.134Z,1013.08
2023-01-21T10:12:36.137Z,1013.07
2023-01-21T10:13:36.177Z,1013.07
2023-01-21T10:14:36.162Z,1013.07
2023-01-21T10:15:36.181Z,1013.1
2023-01-21T10:16:36.204Z,1013.07
2023-01-21T10:17:36.203Z,1013.12
2023-01-21T10:18:36.213Z,1013.05
2023-01-21T10:19:36.245Z,1013.04
2023-01-21T10:20:36.248Z,1012.99
2023-01-21T10:21:36.259Z,1013.02
2023-01-21T10:22:36.467Z,1013.01
2023-01-21T10:23:36.283Z,1013.06
2023-01-21T10:24:36.292Z,1012.98
2023-01-21T10:25:36.313Z,1013.01
2023-01-21T10:26:36.314Z,1013.01
2023-01-21T10:27:36.329Z,1013.01
2023-01-21T10:28:36.545Z,1012.97
2023-01-21T10:29:36.387Z,1013.02
2023-01-21T10:30:36.457Z,1012.99
2023-01-21T10:31:36.531Z,1013.03
2023-01-21T10:32:36.397Z,1013.01
2023-01-21T10:33:36.409Z,1013.09
2023-01-21T10:34:36.423Z,1013.06
2023-01-21T10:35:36.433Z,1013.08
2023-01-21T10:36:36.448Z,1013.13
2023-01-21T10:37:36.462Z,1013.1
2023-01-21T10:38:36.475Z,1013.08
2023-01-21T10:39:36.489Z,1013.12
2023-01-21T10:40:36.510Z,1013.15
2023-01-21T10:41:36.514Z,1013.13
2023-01-21T10:42:36.537Z,1013.14
2023-01-21T10:43:36.539Z,1013.14
2023-01-21T10:44:36.554Z,1013.14
2023-01-21T10:45:36.591Z,1013.11
2023-01-21T10:46:36.578Z,1013.14
2023-01-21T10:47:36.591Z,1013.13
2023-01-21T10:48:36.601Z,1013.08
2023-01-21T10:49:36.616Z,1013.09
2023-01-21T10:50:36.624Z,1013.07
2023-01-21T10:51:36.644Z,1013.13
2023-01-21T10:52:36.675Z,1013.14
2023-01-21T10:53:36.689Z,1013.21
2023-01-21T10:54:36.682Z,1013.16
2023-01-21T10:55:36.698Z,1013.17
2023-01-21T10:56:36.710Z,1013.16
2023-01-21T10:57:36.720Z,1013.13
2023-01-21T10:58:36.733Z,1013.16
2023-01-21T10:59:36.754Z,1013.2
2023-01-21T11:00:36.762Z,1013.19
2023-01-21T11:01:36.850Z,1013.19
2023-01-21T11:02:36.851Z,1013.19
2023-01-21T11:03:36.805Z,1013.2
2023-01-21T11:04:36.836Z,1013.2
2023-01-21T11:05:36.827Z,1013.14
2023-01-21T11:06:36.841Z,1013.07
2023-01-21T11:07:36.853Z,1013.1
2023-01-21T11:08:36.878Z,1013.1
2023-01-21T11:09:36.882Z,1013.14
2023-01-21T11:10:36.891Z,1013.14
2023-01-21T11:11:36.911Z,1013.19
2023-01-21T11:12:36.919Z,1013.2
2023-01-21T11:13:36.930Z,1013.19
2023-01-21T11:14:36.949Z,1013.19
2023-01-21T11:15:36.970Z,1013.19
2023-01-21T11:16:36.972Z,1013.18
2023-01-21T11:17:37.005Z,1013.2
2023-01-21T11:18:37.004Z,1013.15
2023-01-21T11:19:37.024Z,1013.19
2023-01-21T11:20:37.021Z,1013.16
2023-01-21T11:21:37.036Z,1013.21
2023-01-21T11:22:37.051Z,1013.24
2023-01-21T11:23:37.076Z,1013.17
2023-01-21T11:24:37.077Z,1013.23
2023-01-21T11:25:37.090Z,1013.27
2023-01-21T11:26:37.109Z,1013.26
2023-01-21T11:27:37.115Z,1013.22
2023-01-21T11:28:37.485Z,1013.21
2023-01-21T11:29:37.151Z,1013.22
2023-01-21T11:30:53.115Z,1013.22
2023-01-21T11:31:37.264Z,1013.23
2023-01-21T11:32:37.182Z,1013.24
2023-01-21T11:33:37.235Z,1013.22
2023-01-21T11:34:37.204Z,1013.19
2023-01-21T11:35:37.222Z,1013.2
2023-01-21T11:36:37.233Z,1013.21
2023-01-21T11:37:37.246Z,1013.18
2023-01-21T11:38:37.259Z,1013.24
2023-01-21T11:39:37.275Z,1013.2
2023-01-21T11:40:37.293Z,1013.17
2023-01-21T11:41:37.314Z,1013.19
2023-01-21T11:42:37.312Z,1013.17
2023-01-21T11:43:37.327Z,1013.14
2023-01-21T11:44:37.340Z,1013.15
2023-01-21T11:45:37.351Z,1013.15
2023-01-21T11:46:37.382Z,1013.12
2023-01-21T11:47:37.379Z,1013.14
2023-01-21T11:48:37.390Z,1013.12
2023-01-21T11:49:37.433Z,1013.16
2023-01-21T11:50:37.419Z,1013.13
2023-01-21T11:51:37.430Z,1013.2
2023-01-21T11:52:37.451Z,1013.15
2023-01-21T11:53:37.458Z,1013.09
2023-01-21T11:54:37.469Z,1013.17
2023-01-21T11:55:37.485Z,1013.19
2023-01-21T11:56:37.500Z,1013.19
2023-01-21T11:57:37.513Z,1013.17
2023-01-21T11:58:37.522Z,1013.14
2023-01-21T11:59:37.531Z,1013.15
2023-01-21T12:00:37.553Z,1013.1
2023-01-21T12:01:37.563Z,1013.12
2023-01-21T12:02:37.609Z,1013.18
2023-01-21T12:03:37.645Z,1013.19
2023-01-21T12:04:37.602Z,1013.16
2023-01-21T12:05:37.643Z,1013.16
2023-01-21T12:06:37.626Z,1013.09
2023-01-21T12:07:37.644Z,1013.14
2023-01-21T12:08:37.685Z,1013.15